地図

経路データ

SID SEASON NUMBER BASIN SUBBASIN NAME ISO_TIME NATURE LAT LON WMO_WIND WMO_PRES WMO_AGENCY TRACK_TYPE DIST2LAND LANDFALL IFLAG USA_AGENCY USA_ATCF_ID USA_LAT USA_LON USA_RECORD USA_STATUS USA_WIND USA_PRES USA_SSHS USA_R34_NE USA_R34_SE USA_R34_SW USA_R34_NW USA_R50_NE USA_R50_SE USA_R50_SW USA_R50_NW USA_R64_NE USA_R64_SE USA_R64_SW USA_R64_NW USA_POCI USA_ROCI USA_RMW USA_EYE TOKYO_LAT TOKYO_LON TOKYO_GRADE TOKYO_WIND TOKYO_PRES TOKYO_R50_DIR TOKYO_R50_LONG TOKYO_R50_SHORT TOKYO_R30_DIR TOKYO_R30_LONG TOKYO_R30_SHORT TOKYO_LAND CMA_LAT CMA_LON CMA_CAT CMA_WIND CMA_PRES HKO_LAT HKO_LON HKO_CAT HKO_WIND HKO_PRES NEWDELHI_LAT NEWDELHI_LON NEWDELHI_GRADE NEWDELHI_WIND NEWDELHI_PRES NEWDELHI_CI NEWDELHI_DP NEWDELHI_POCI REUNION_LAT REUNION_LON REUNION_TYPE REUNION_WIND REUNION_PRES REUNION_TNUM REUNION_CI REUNION_RMW REUNION_R34_NE REUNION_R34_SE REUNION_R34_SW REUNION_R34_NW REUNION_R50_NE REUNION_R50_SE REUNION_R50_SW REUNION_R50_NW REUNION_R64_NE REUNION_R64_SE REUNION_R64_SW REUNION_R64_NW BOM_LAT BOM_LON BOM_TYPE BOM_WIND BOM_PRES BOM_TNUM BOM_CI BOM_RMW BOM_R34_NE BOM_R34_SE BOM_R34_SW BOM_R34_NW BOM_R50_NE BOM_R50_SE BOM_R50_SW BOM_R50_NW BOM_R64_NE BOM_R64_SE BOM_R64_SW BOM_R64_NW BOM_ROCI BOM_POCI BOM_EYE BOM_POS_METHOD BOM_PRES_METHOD NADI_LAT NADI_LON NADI_CAT NADI_WIND NADI_PRES WELLINGTON_LAT WELLINGTON_LON WELLINGTON_WIND WELLINGTON_PRES DS824_LAT DS824_LON DS824_STAGE DS824_WIND DS824_PRES TD9636_LAT TD9636_LON TD9636_STAGE TD9636_WIND TD9636_PRES TD9635_LAT TD9635_LON TD9635_WIND TD9635_PRES TD9635_ROCI NEUMANN_LAT NEUMANN_LON NEUMANN_CLASS NEUMANN_WIND NEUMANN_PRES MLC_LAT MLC_LON MLC_CLASS MLC_WIND MLC_PRES USA_GUST BOM_GUST BOM_GUST_PER REUNION_GUST REUNION_GUST_PER USA_SEAHGT USA_SEARAD_NE USA_SEARAD_SE USA_SEARAD_SW USA_SEARAD_NW STORM_SPEED STORM_DIR
1992174N13126 1992 41 WP MM CHUCK 1992-06-21 18:00:00 NR 13.0000 126.000 main 101 70 O_____________ jtwc_wp WP031992 13.0000 126.000 15 -1 8 270
1992174N13126 1992 41 WP MM CHUCK 1992-06-21 21:00:00 NR 13.0001 125.600 main 70 55 P_____________ WP031992 13.0001 125.600 15 -1 8 270
1992174N13126 1992 41 WP MM CHUCK 1992-06-22 00:00:00 NR 13.0000 125.200 main 55 55 O_____________ jtwc_wp WP031992 13.0000 125.200 15 -1 8 270
1992174N13126 1992 41 WP MM CHUCK 1992-06-22 03:00:00 NR 12.9999 124.800 main 57 32 P_____________ WP031992 12.9999 124.800 15 -1 8 270
1992174N13126 1992 41 WP MM CHUCK 1992-06-22 06:00:00 NR 13.0000 124.400 main 32 0 O_____________ jtwc_wp WP031992 13.0000 124.400 15 -1 8 270
1992174N13126 1992 41 WP MM CHUCK 1992-06-22 09:00:00 NR 12.9999 124.000 main 0 0 P_____________ WP031992 12.9999 124.000 15 -1 8 270
1992174N13126 1992 41 WP MM CHUCK 1992-06-22 12:00:00 NR 13.0000 123.600 main 0 0 O_____________ jtwc_wp WP031992 13.0000 123.600 15 -1 8 270
1992174N13126 1992 41 WP MM CHUCK 1992-06-22 15:00:00 NR 12.9999 123.200 main 10 10 P_____________ WP031992 12.9999 123.200 15 -1 8 270
1992174N13126 1992 41 WP MM CHUCK 1992-06-22 18:00:00 NR 13.0000 122.800 main 24 22 O_____________ jtwc_wp WP031992 13.0000 122.800 15 -1 8 270
1992174N13126 1992 41 WP MM CHUCK 1992-06-22 21:00:00 NR 12.9999 122.400 main 31 31 P_____________ WP031992 12.9999 122.400 15 -1 8 270
1992174N13126 1992 41 WP MM CHUCK 1992-06-23 00:00:00 NR 13.0000 122.000 main 54 10 O_____________ jtwc_wp WP031992 13.0000 122.000 15 -1 8 270
1992174N13126 1992 41 WP MM CHUCK 1992-06-23 03:00:00 NR 12.9999 121.600 main 10 0 P_____________ WP031992 12.9999 121.600 15 -1 8 270
1992174N13126 1992 41 WP MM CHUCK 1992-06-23 06:00:00 NR 13.0000 121.200 main 0 0 O_____________ jtwc_wp WP031992 13.0000 121.200 15 -1 8 269
1992174N13126 1992 41 WP MM CHUCK 1992-06-23 09:00:00 NR 12.9924 120.800 main 0 0 P_____________ WP031992 12.9924 120.800 15 -1 8 270
1992174N13126 1992 41 WP MM CHUCK 1992-06-23 12:00:00 NR 13.0000 120.400 main 24 24 O_____________ jtwc_wp WP031992 13.0000 120.400 15 -1 8 274
1992174N13126 1992 41 WP MM CHUCK 1992-06-23 15:00:00 NR 13.0425 119.993 main 55 54 P_____________ WP031992 13.0425 119.993 17 -1 8 277
1992174N13126 1992 41 WP MM CHUCK 1992-06-23 18:00:00 NR 13.1000 119.600 main 82 82 O_____________ jtwc_wp WP031992 13.1000 119.600 20 -1 7 277
1992174N13126 1992 41 WP MM CHUCK 1992-06-23 21:00:00 NR 13.1274 119.235 main 123 123 P_____________ WP031992 13.1274 119.235 20 -1 12 282
1992174N13126 1992 41 WP MM CHUCK 1992-06-24 00:00:00 TS 13.3571 118.400 1002 tokyo main 205 205 OOOO__________ jtwc_wp WP031992 13.2000 118.900 20 -1 15.0000 115.300 2 1002 0 0 0 13.0000 118.900 0 19 1000 12.7000 119.000 TD 25 995 13 288
1992174N13126 1992 41 WP MM CHUCK 1992-06-24 03:00:00 TS 13.5395 117.937 main 259 259 PPPP__________ WP031992 13.3774 118.593 20 -1 14.9775 115.280 2 1001 0 0 13.1376 118.605 0 19 999 12.8276 118.612 TD 25 995 9 294
1992174N13126 1992 41 WP MM CHUCK 1992-06-24 06:00:00 TS 13.7154 117.585 1000 tokyo main 293 293 OOOO__________ jtwc_wp WP031992 13.6000 118.300 20 -1 15.0000 115.300 2 1000 0 0 0 13.3000 118.300 0 19 998 13.0000 118.200 TD 25 995 7 300
1992174N13126 1992 41 WP MM CHUCK 1992-06-24 09:00:00 TS 13.9106 117.277 main 318 318 PPPP__________ WP031992 13.8075 118.000 22 -1 15.0925 115.385 2 1000 0 0 13.4999 117.972 0 21 998 13.2425 117.750 TD 25 995 7 305
1992174N13126 1992 41 WP MM CHUCK 1992-06-24 12:00:00 TS 14.1000 117.025 1000 tokyo main 343 343 OOOO__________ jtwc_wp WP031992 14.0000 117.700 25 -1 15.2000 115.500 2 1000 0 0 0 13.7000 117.600 1 23 998 13.5000 117.300 TD 25 995 6 304
1992174N13126 1992 41 WP MM CHUCK 1992-06-24 15:00:00 TS 14.2468 116.764 main 359 359 PPPP__________ WP031992 14.1574 117.407 25 -1 15.2650 115.593 2 1000 0 0 13.8500 117.165 1 26 996 13.7149 116.892 TD 27 995 6 298
1992174N13126 1992 41 WP MM CHUCK 1992-06-24 18:00:00 TS 14.3750 116.500 1000 tokyo main 382 382 OOOO__________ jtwc_wp WP031992 14.3000 117.100 25 -1 15.3000 115.700 2 1000 0 0 0 14.0000 116.700 1 29 995 13.9000 116.500 TD 30 995 6 298
1992174N13126 1992 41 WP MM CHUCK 1992-06-24 21:00:00 TS 14.5207 116.238 main 410 406 PPPP__________ WP031992 14.4575 116.750 27 -1 15.3525 115.903 2 998 0 0 14.2000 116.228 1 33 992 14.0726 116.070 TD 32 992 6 296
1992174N13126 1992 41 WP MM CHUCK 1992-06-25 00:00:00 TS 14.6250 115.975 40 996 tokyo main 426 426 OOOO__________ jtwc_wp WP031992 14.6000 116.400 30 -1 15.3000 116.000 3 40 996 0 9 120 120 0 14.4000 115.800 2 38 990 14.2000 115.700 TS 35 990 5 284
1992174N13126 1992 41 WP MM CHUCK 1992-06-25 03:00:00 TS 14.6437 115.712 main 456 456 PPPP__________ WP031992 14.7149 116.092 32 -1 15.0075 115.817 3 40 994 0 9 120 120 14.5799 115.470 2 38 990 14.2724 115.470 TS 37 987 5 270
1992174N13126 1992 41 WP MM CHUCK 1992-06-25 06:00:00 TS 14.6250 115.450 40 992 tokyo main 477 477 OOOO__________ jtwc_wp WP031992 14.8000 115.800 35 0 14.7000 115.500 3 40 992 0 9 120 120 0 14.7000 115.200 2 38 990 14.3000 115.300 TS 40 985 5 268
1992174N13126 1992 41 WP MM CHUCK 1992-06-25 09:00:00 TS 14.6250 115.184 main 507 507 PPPP__________ WP031992 14.8650 115.492 37 0 14.6050 115.208 3 42 991 0 9 150 150 14.7300 114.935 2 43 987 14.3000 115.100 TS 42 982 5 270
1992174N13126 1992 41 WP MM CHUCK 1992-06-25 12:00:00 TS 14.6250 114.925 45 990 tokyo main 538 538 OOOO__________ jtwc_wp WP031992 14.9000 115.200 40 0 14.6000 114.900 3 45 990 0 9 180 180 0 14.7000 114.700 3 48 985 14.3000 114.900 TS 45 980 5 270
1992174N13126 1992 41 WP MM CHUCK 1992-06-25 15:00:00 TS 14.6231 114.680 main 558 558 PPPP__________ WP031992 14.8999 114.942 42 0 14.6000 114.585 3 45 990 0 9 180 180 14.6575 114.493 3 48 985 14.3350 114.700 TS 47 980 5 270
1992174N13126 1992 41 WP MM CHUCK 1992-06-25 18:00:00 TS 14.6250 114.450 45 990 tokyo main 566 534 OOOO__________ jtwc_wp WP031992 14.9000 114.700 45 0 14.6000 114.300 3 45 990 0 9 180 180 0 14.6000 114.300 3 48 985 14.4000 114.500 STS 50 980 4 270
1992174N13126 1992 41 WP MM CHUCK 1992-06-25 21:00:00 TS 14.6244 114.230 main 534 512 PPPP__________ WP031992 14.9350 114.450 47 0 14.5425 114.077 3 47 987 0 9 210 210 14.5350 114.092 3 53 982 14.4850 114.300 STS 52 977 4 273
1992174N13126 1992 41 WP MM CHUCK 1992-06-26 00:00:00 TS 14.6500 114.025 50 985 tokyo main 514 493 OOOO__________ jtwc_wp WP031992 15.0000 114.200 50 0 14.5000 113.900 4 50 985 0 9 240 240 0 14.5000 113.900 3 58 980 14.6000 114.100 STS 55 975 4 283
1992174N13126 1992 41 WP MM CHUCK 1992-06-26 03:00:00 TS 14.7131 113.839 main 493 484 PPPP__________ WP031992 15.0925 113.950 52 0 14.5124 113.765 4 52 982 0 9 240 240 14.5125 113.742 3 58 980 14.7350 113.900 STS 55 975 4 296
1992174N13126 1992 41 WP MM CHUCK 1992-06-26 06:00:00 TS 14.8250 113.650 55 980 tokyo main 484 458 OOOO__________ jtwc_wp WP031992 15.2000 113.700 55 0 14.6000 113.600 4 55 980 9 30 30 9 240 240 0 14.6000 113.600 3 58 980 14.9000 113.700 STS 55 975 5 303
1992174N13126 1992 41 WP MM CHUCK 1992-06-26 09:00:00 TS 14.9756 113.425 main 458 440 PPPP__________ WP031992 15.2850 113.450 57 0 14.7551 113.293 4 55 980 9 30 30 9 240 240 14.7700 113.457 3 58 980 15.0925 113.500 STS 55 975 6 309
1992174N13126 1992 41 WP MM CHUCK 1992-06-26 12:00:00 TS 15.1750 113.200 55 980 tokyo main 444 426 OOOO__________ jtwc_wp WP031992 15.4000 113.200 60 0 15.0000 113.000 4 55 980 9 30 30 9 240 240 0 15.0000 113.300 3 58 980 15.3000 113.300 STS 55 975 6 317
1992174N13126 1992 41 WP MM CHUCK 1992-06-26 15:00:00 TS 15.4025 113.012 main 426 409 PPPP__________ WP031992 15.5775 112.950 62 0 15.3199 112.892 4 57 977 9 30 30 9 240 240 15.2200 113.107 3 58 977 15.4925 113.100 STS 57 972 6 324
1992174N13126 1992 41 WP MM CHUCK 1992-06-26 18:00:00 TS 15.6750 112.825 60 975 tokyo main 412 381 OOOO__________ jtwc_wp WP031992 15.8000 112.700 65 1 15.7000 112.800 4 60 975 9 30 30 9 240 240 0 15.5000 112.900 3 58 975 15.7000 112.900 STS 60 970 7 327
1992174N13126 1992 41 WP MM CHUCK 1992-06-26 21:00:00 TS 16.0056 112.608 main 381 342 PPPP__________ WP031992 16.0425 112.442 67 1 16.1300 112.573 4 60 975 9 35 35 9 240 240 15.9074 112.715 3 58 972 15.9425 112.700 STS 62 967 8 326
1992174N13126 1992 41 WP MM CHUCK 1992-06-27 00:00:00 TS 16.3250 112.375 60 975 tokyo main 342 311 OOOO__________ jtwc_wp WP031992 16.3000 112.200 70 1 16.5000 112.300 4 60 975 9 40 40 9 240 240 0 16.3000 112.500 3 58 970 16.2000 112.500 T 65 965 7 320
1992174N13126 1992 41 WP MM CHUCK 1992-06-27 03:00:00 TS 16.5431 112.147 main 305 274 PPPP__________ WP031992 16.5424 112.000 72 1 16.6724 112.057 4 62 972 9 50 50 9 250 250 16.5150 112.215 3 63 967 16.4424 112.315 T 65 965 6 313
1992174N13126 1992 41 WP MM CHUCK 1992-06-27 06:00:00 TS 16.7500 111.900 65 970 tokyo main 265 228 OOOO__________ jtwc_wp WP031992 16.8000 111.800 75 1 16.8000 111.800 5 65 970 9 60 60 9 260 260 0 16.7000 111.900 4 68 965 16.7000 112.100 T 65 965 7 315
1992174N13126 1992 41 WP MM CHUCK 1992-06-27 09:00:00 TS 17.0299 111.629 main 228 183 PPPP__________ WP031992 17.1075 111.565 75 1 17.0349 111.522 5 67 967 9 60 60 9 260 260 16.9849 111.607 4 68 965 16.9925 111.822 T 67 962 8 316
1992174N13126 1992 41 WP MM CHUCK 1992-06-27 12:00:00 TS 17.3250 111.325 70 965 tokyo main 183 138 OOOO__________ jtwc_wp WP031992 17.4000 111.300 75 1 17.3000 111.200 5 70 965 9 60 60 9 260 260 0 17.3000 111.300 4 68 965 17.3000 111.500 T 70 960 8 312
1992174N13126 1992 41 WP MM CHUCK 1992-06-27 15:00:00 TS 17.5856 110.986 main 138 92 PPPP__________ WP031992 17.6074 111.015 75 1 17.5276 110.800 5 70 965 9 60 60 9 260 260 17.5999 110.965 4 68 965 17.6074 111.165 T 70 960 9 308
1992174N13126 1992 41 WP MM CHUCK 1992-06-27 18:00:00 TS 17.8500 110.625 70 965 tokyo main 84 46 OOOO__________ jtwc_wp WP031992 17.8000 110.700 75 1 17.8000 110.400 5 70 965 9 60 60 9 260 260 0 17.9000 110.600 4 68 965 17.9000 110.800 T 70 960 9 310
1992174N13126 1992 41 WP MM CHUCK 1992-06-27 21:00:00 TS 18.1649 110.264 main 38 0 PPPP__________ WP031992 18.0499 110.365 77 1 18.1999 110.078 5 67 967 9 60 60 9 260 260 18.2374 110.215 4 68 962 18.1725 110.400 T 70 960 9 311
1992174N13126 1992 41 WP MM CHUCK 1992-06-28 00:00:00 TS 18.4500 109.900 65 970 tokyo main 0 0 OOOO__________ jtwc_wp WP031992 18.3000 110.000 80 1 18.6000 109.800 5 65 970 9 60 60 9 260 260 0 18.5000 109.800 4 68 960 18.4000 110.000 T 70 960 8 305
1992174N13126 1992 41 WP MM CHUCK 1992-06-28 03:00:00 TS 18.6424 109.539 main 0 0 PPPP__________ WP031992 18.5149 109.615 72 1 18.9098 109.565 5 65 970 9 60 60 9 260 260 18.5800 109.342 4 68 962 18.5649 109.635 T 70 960 8 295
1992174N13126 1992 41 WP MM CHUCK 1992-06-28 06:00:00 TS 18.7750 109.175 65 970 tokyo main 0 0 OOOO__________ jtwc_wp WP031992 18.7000 109.200 65 1 19.1000 109.300 5 65 970 9 60 60 9 260 260 0 18.6000 108.900 4 68 965 18.7000 109.300 T 70 960 7 287
1992174N13126 1992 41 WP MM CHUCK 1992-06-28 09:00:00 TS 18.8619 108.792 main 0 0 PPPP__________ WP031992 18.8351 108.735 60 0 19.1076 108.915 5 62 972 9 60 60 9 245 245 18.6624 108.527 4 68 965 18.8424 108.992 T 67 962 7 286
1992174N13126 1992 41 WP MM CHUCK 1992-06-28 12:00:00 TS 18.9750 108.425 60 975 tokyo main 31 31 OOOO__________ jtwc_wp WP031992 19.0000 108.300 55 0 19.1000 108.500 4 60 975 9 60 60 9 230 230 0 18.8000 108.200 4 68 965 19.0000 108.700 T 65 965 7 297
1992174N13126 1992 41 WP MM CHUCK 1992-06-28 15:00:00 TS 19.1987 108.086 main 53 53 PPPP__________ WP031992 19.2774 107.963 55 0 19.2550 108.120 4 57 977 9 55 55 9 215 215 19.0775 107.870 4 68 967 19.1850 108.392 T 65 967 8 310
1992174N13126 1992 41 WP MM CHUCK 1992-06-28 18:00:00 TS 19.4750 107.800 55 980 tokyo main 86 86 OOOO__________ jtwc_wp WP031992 19.6000 107.700 55 0 19.5000 107.800 4 55 980 9 50 50 9 200 200 0 19.4000 107.600 4 68 970 19.4000 108.100 T 65 970 7 319
1992174N13126 1992 41 WP MM CHUCK 1992-06-28 21:00:00 TS 19.7499 107.585 main 113 89 PPPP__________ WP031992 19.9074 107.485 55 0 19.8074 107.577 4 55 980 9 50 50 9 190 190 19.6424 107.435 4 63 972 19.6424 107.842 T 67 965 7 326
1992174N13126 1992 41 WP MM CHUCK 1992-06-29 00:00:00 TS 20.0250 107.400 55 980 tokyo main 89 61 OOOO__________ jtwc_wp WP031992 20.2000 107.300 55 0 20.1000 107.400 4 55 980 9 50 50 9 180 180 0 19.9000 107.300 3 58 974 19.9000 107.600 T 70 960 6 325
1992174N13126 1992 41 WP MM CHUCK 1992-06-29 03:00:00 TS 20.2787 107.189 main 61 30 PPPP__________ WP031992 20.4724 107.107 55 0 20.2649 107.207 4 52 982 9 9 165 165 20.2275 107.093 3 58 974 20.1500 107.350 T 70 960 6 321
1992174N13126 1992 41 WP MM CHUCK 1992-06-29 06:00:00 TS 20.5250 106.975 50 985 tokyo main 30 0 OOOO__________ jtwc_wp WP031992 20.7000 106.900 55 0 20.4000 107.000 4 50 985 0 9 150 150 0 20.6000 106.900 3 58 974 20.4000 107.100 T 70 960 6 323
1992174N13126 1992 41 WP MM CHUCK 1992-06-29 09:00:00 TS 20.7899 106.774 main 0 0 PPPP__________ WP031992 20.8650 106.657 55 0 20.5849 106.772 4 50 985 0 9 145 145 21.0599 106.800 3 53 977 20.6499 106.865 T 67 965 6 321
1992174N13126 1992 41 WP MM CHUCK 1992-06-29 12:00:00 TS 21.0250 106.550 50 985 tokyo main 0 0 OOOO__________ jtwc_wp WP031992 21.0000 106.400 55 0 20.8000 106.500 4 50 985 0 9 140 140 0 21.4000 106.700 3 48 980 20.9000 106.600 T 65 970 6 311
1992174N13126 1992 41 WP MM CHUCK 1992-06-29 15:00:00 TS 21.1881 106.276 main 0 0 PPPP__________ WP031992 21.1425 106.150 52 0 21.0275 106.172 4 47 987 0 9 130 130 21.4325 106.507 3 43 985 21.1500 106.272 T 60 975 6 299
1992174N13126 1992 41 WP MM CHUCK 1992-06-29 18:00:00 TS 21.3250 105.975 45 990 tokyo main 0 0 OOOO__________ jtwc_wp WP031992 21.3000 105.900 50 0 21.3000 105.800 3 45 990 0 9 120 120 0 21.3000 106.300 2 38 990 21.4000 105.900 STS 55 980 7 297
1992174N13126 1992 41 WP MM CHUCK 1992-06-29 21:00:00 TS 21.4932 105.638 main 0 0 PPPP__________ WP031992 21.4850 105.635 45 0 21.6877 105.348 3 993 0 9 21.1650 106.097 2 33 992 21.6352 105.470 STS 47 985 6 300
1992174N13126 1992 41 WP MM CHUCK 1992-06-30 00:00:00 TS 21.6333 105.393 996 tokyo main 0 0 OOOO__________ jtwc_wp WP031992 21.7000 105.400 40 0 22.0000 105.000 2 996 0 0 0 21.0000 106.000 1 29 995 21.9000 105.100 TS 40 990 3 306
1992174N13126 1992 41 WP MM CHUCK 1992-06-30 03:00:00 TS 21.6899 105.349 main 0 0 PPPP__________ WP031992 21.9500 105.220 35 0 22.0523 104.940 2 997 0 0 20.7975 106.113 1 29 995 22.2299 104.897 TS 32 992 1 20
1992174N13126 1992 41 WP MM CHUCK 1992-06-30 06:00:00 TS 21.7077 105.415 998 tokyo main 0 0 OOOO__________ jtwc_wp WP031992 22.2000 105.100 30 -1 22.0000 105.000 2 998 0 0 0 20.7000 106.300 1 29 995 22.6000 104.800 TD 25 995 1 65
1992174N13126 1992 41 WP MM CHUCK 1992-06-30 09:00:00 TS 21.7492 105.488 main 0 0 PPP___________ WP031992 22.4075 105.027 30 -1 22.0000 105.000 2 998 0 0 20.8400 106.437 1 29 995 TD 2 23
1992174N13126 1992 41 WP MM CHUCK 1992-06-30 12:00:00 TS 21.9000 105.500 998 tokyo main 0 0 OOO___________ jtwc_wp WP031992 22.6000 105.000 30 -1 22.0000 105.000 2 998 0 0 0 21.1000 106.500 1 29 995 3 357
1992174N13126 1992 41 WP MM CHUCK 1992-06-30 15:00:00 TS 22.0475 105.467 main 0 0 PPP___________ WP031992 22.8000 104.985 27 -1 22.0000 105.000 2 998 0 0 21.3425 106.415 1 26 996 2 359
1992174N13126 1992 41 WP MM CHUCK 1992-06-30 18:00:00 TS 22.1273 105.473 998 tokyo main 0 0 OOO___________ jtwc_wp WP031992 23.0000 105.000 25 -1 22.0000 105.000 2 998 0 0 0 21.6000 106.300 1 23 998 1 0
1992174N13126 1992 41 WP MM CHUCK 1992-06-30 21:00:00 TS 22.1529 105.493 main 0 0 PPP___________ WP031992 23.2000 105.042 22 -1 21.9248 104.926 2 999 0 0 21.8575 106.285 1 21 998 1 54
1992174N13126 1992 41 WP MM CHUCK 1992-07-01 00:00:00 TS 22.2000 105.589 1000 tokyo main 0 0 OOO___________ jtwc_wp WP031992 23.4000 105.100 20 -1 22.0000 105.000 2 1000 0 0 0 22.1000 106.300 0 19 998 4 57
1992174N13126 1992 41 WP MM CHUCK 1992-07-01 03:00:00 TS 22.3929 105.892 main 0 0 _PP___________ WP031992 -1 22.5008 105.498 2 1000 0 0 22.2850 106.285 0 19 998 8 40
1992174N13126 1992 41 WP MM CHUCK 1992-07-01 06:00:00 TS 22.7857 106.129 1000 tokyo main 0 0 _OO___________ -1 23.0000 106.000 2 1000 0 0 0 22.5000 106.300 0 19 998 6 20
1992174N13126 1992 41 WP MM CHUCK 1992-07-01 09:00:00 TS 22.9889 106.127 main 0 0 _PP___________ -1 23.0745 106.001 2 1000 0 0 22.8175 106.380 0 19 998 3 0
1992174N13126 1992 41 WP MM CHUCK 1992-07-01 12:00:00 TS 23.0400 106.100 1000 tokyo main 0 0 _OO___________ -1 23.0000 106.000 2 1000 0 0 0 23.2000 106.500 0 19 998 3 88
1992174N13126 1992 41 WP MM CHUCK 1992-07-01 15:00:00 TS 23.0008 106.500 main 0 0 _P____________ -1 23.0008 106.500 2 1001 0 0 0 8 93
1992174N13126 1992 41 WP MM CHUCK 1992-07-01 18:00:00 TS 23.0000 107.000 1002 tokyo main 0 0 _O____________ -1 23.0000 107.000 2 1002 0 0 0 6 90
1992174N13126 1992 41 WP MM CHUCK 1992-07-01 21:00:00 TS 22.9996 107.125 main 0 0 _P____________ -1 22.9996 107.125 2 1002 0 0 0 0
1992174N13126 1992 41 WP MM CHUCK 1992-07-02 00:00:00 TS 23.0000 107.000 1002 tokyo main 0 _O____________ -1 23.0000 107.000 2 1002 0 0 0 2 270

デジタル台風データ・検索

IBTrACS Databaseについて

本データベースは、米国NOAAが公開する1842年以降の世界の熱帯低気圧のベストトラックデータアーカイブInternational Best Track Archive for Climate Stewardship (IBTrACS)を、ウェブで閲覧しやすい形式に変換したものです。

最終更新日:2021-12-03